Time;durP1;ratioP1;P1;durP2;ratioP2;P2;SDS_P1;SDS_P2;PMS_P1;PMS_P2;Temp;Humidity;BMP_temperature;BMP_pressure;BME280_temperature;BME280_humidity;BME280_pressure;Samples;Min_cycle;Max_cycle;Signal;HPM_P1;HPM_P2
2023/08/20 00:00:29;;;;;;;3.58;1.80;;;25.10;99.90;;;;;;4981292;28;20034;-53
2023/08/20 00:03:09;;;;;;;3.40;2.08;;;25.00;99.90;;;;;;4986058;28;20054;-53
2023/08/20 00:05:35;;;;;;;3.42;2.22;;;25.00;99.90;;;;;;4982581;28;20498;-53
2023/08/20 00:08:01;;;;;;;3.50;1.83;;;25.00;99.90;;;;;;4988719;28;20026;-51
2023/08/20 00:10:27;;;;;;;2.35;1.38;;;25.00;99.90;;;;;;4978882;28;20046;-52
2023/08/20 00:12:52;;;;;;;3.45;2.00;;;25.10;99.90;;;;;;4987132;28;20436;-53
2023/08/20 00:15:19;;;;;;;3.72;1.65;;;25.00;99.90;;;;;;4986573;28;20038;-52
2023/08/20 00:17:46;;;;;;;4.18;2.42;;;25.00;99.90;;;;;;4986203;28;20138;-53
2023/08/20 00:20:14;;;;;;;3.47;2.08;;;25.00;99.90;;;;;;4984271;28;20034;-53
2023/08/20 00:22:45;;;;;;;3.70;1.98;;;24.90;99.90;;;;;;4985004;28;20026;-54
2023/08/20 00:25:15;;;;;;;;;;;24.90;99.90;;;;;;4984607;28;20030;-52
2023/08/20 00:27:41;;;;;;;3.97;1.95;;;24.90;99.90;;;;;;4985347;28;19920;-53
2023/08/20 00:30:09;;;;;;;3.33;1.85;;;24.90;99.90;;;;;;4983192;28;20494;-50
2023/08/20 00:32:36;;;;;;;4.47;2.60;;;24.90;99.90;;;;;;4998695;28;20046;-54
2023/08/20 00:35:02;;;;;;;3.55;2.13;;;24.90;99.90;;;;;;4984627;28;20045;-53
2023/08/20 00:37:29;;;;;;;3.50;1.95;;;24.80;99.90;;;;;;4982292;28;20048;-49
2023/08/20 00:39:54;;;;;;;3.42;1.45;;;24.80;99.90;;;;;;4986258;28;20038;-54
2023/08/20 00:42:20;;;;;;;4.72;2.17;;;24.80;99.90;;;;;;4981701;28;20030;-52
2023/08/20 00:44:46;;;;;;;3.90;1.92;;;24.80;99.90;;;;;;4988087;28;20557;-55
2023/08/20 00:47:13;;;;;;;3.95;1.80;;;24.80;99.90;;;;;;4984066;28;20479;-50
2023/08/20 00:49:41;;;;;;;3.78;2.03;;;24.80;99.90;;;;;;4987289;28;20026;-52
2023/08/20 00:52:09;;;;;;;4.30;2.08;;;24.70;99.90;;;;;;4983767;28;20038;-52
2023/08/20 00:54:36;;;;;;;4.15;2.25;;;24.70;99.90;;;;;;4986213;28;20049;-53
2023/08/20 00:57:02;;;;;;;3.08;1.88;;;24.60;99.90;;;;;;4983198;28;20504;-51
2023/08/20 00:59:31;;;;;;;2.70;1.88;;;24.60;99.90;;;;;;4972921;28;20038;-52
2023/08/20 01:01:58;;;;;;;3.20;1.92;;;24.60;99.90;;;;;;4969331;28;20054;-53
2023/08/20 01:04:23;;;;;;;3.67;1.65;;;24.50;99.90;;;;;;4978835;28;20046;-54
2023/08/20 01:07:05;;;;;;;4.28;2.22;;;24.50;99.90;;;;;;4961339;28;20029;-48
2023/08/20 01:10:10;;;;;;;4.65;2.03;;;24.50;99.90;;;;;;4985778;28;20038;-53
2023/08/20 01:12:36;;;;;;;5.22;2.20;;;24.50;99.90;;;;;;4978108;28;20533;-54
2023/08/20 01:15:02;;;;;;;5.55;2.97;;;24.50;99.90;;;;;;4979617;28;20050;-52
2023/08/20 01:17:29;;;;;;;3.28;1.77;;;24.50;99.90;;;;;;4967570;28;20027;-52
2023/08/20 01:19:55;;;;;;;5.25;2.25;;;24.50;99.90;;;;;;4974704;28;20093;-54
2023/08/20 01:23:15;;;;;;;3.28;1.80;;;24.50;99.90;;;;;;4981685;28;20792;-51
2023/08/20 01:25:54;;;;;;;3.03;1.83;;;24.40;99.90;;;;;;4979074;28;20047;-52
2023/08/20 01:28:31;;;;;;;5.85;1.80;;;24.50;99.90;;;;;;4949826;29;20317;-52
2023/08/20 01:30:59;;;;;;;3.80;1.95;;;24.50;99.90;;;;;;4965074;28;20513;-50
2023/08/20 01:33:26;;;;;;;4.60;2.17;;;24.50;99.90;;;;;;4975811;28;20145;-52
2023/08/20 01:35:53;;;;;;;4.43;2.45;;;24.50;99.90;;;;;;5008072;23;20046;-59
2023/08/20 01:38:19;;;;;;;9.45;1.92;;;24.40;99.90;;;;;;4997276;28;20092;-59
2023/08/20 01:40:45;;;;;;;4.03;1.98;;;24.40;99.90;;;;;;5008543;28;20101;-59
2023/08/20 01:43:11;;;;;;;4.22;2.05;;;24.40;99.90;;;;;;5008895;28;20029;-59
2023/08/20 01:45:37;;;;;;;4.28;2.00;;;24.40;99.90;;;;;;5008962;28;20060;-58
2023/08/20 01:48:03;;;;;;;4.22;1.80;;;24.30;99.90;;;;;;5000089;28;20084;-59
2023/08/20 01:50:30;;;;;;;4.53;1.95;;;24.30;99.90;;;;;;5009043;28;20045;-59
2023/08/20 01:52:56;;;;;;;6.93;2.50;;;24.20;99.90;;;;;;5010010;28;20034;-59
2023/08/20 01:55:21;;;;;;;7.47;2.53;;;24.20;99.90;;;;;;5009891;28;20037;-59
2023/08/20 01:57:48;;;;;;;5.32;2.92;;;24.10;99.90;;;;;;5010921;28;20133;-59
2023/08/20 02:00:14;;;;;;;4.70;2.53;;;24.00;99.90;;;;;;5009823;28;20117;-59
2023/08/20 02:02:40;;;;;;;4.30;2.15;;;23.90;99.90;;;;;;5010121;28;20101;-59
2023/08/20 02:05:06;;;;;;;4.13;2.00;;;23.70;99.90;;;;;;5010379;28;20456;-59
2023/08/20 02:07:32;;;;;;;6.07;2.13;;;23.50;99.90;;;;;;5010907;28;20065;-59
2023/08/20 02:09:58;;;;;;;6.20;2.67;;;23.20;99.90;;;;;;5010092;28;20065;-59
2023/08/20 02:12:28;;;;;;;3.92;1.90;;;23.20;99.90;;;;;;5009858;28;20034;-58
2023/08/20 02:14:54;;;;;;;7.27;2.10;;;23.10;99.90;;;;;;5005387;28;20046;-58
2023/08/20 02:17:19;;;;;;;4.25;2.38;;;22.90;99.90;;;;;;5010474;28;20391;-58
2023/08/20 02:19:45;;;;;;;4.25;2.25;;;22.90;99.90;;;;;;5010066;28;20036;-59
2023/08/20 02:22:11;;;;;;;5.00;2.40;;;22.80;99.90;;;;;;5009845;28;20367;-59
2023/08/20 02:24:37;;;;;;;5.43;2.50;;;22.70;99.90;;;;;;5007529;28;20045;-59
2023/08/20 02:27:03;;;;;;;4.25;2.40;;;22.90;99.90;;;;;;5009140;28;20052;-59
2023/08/20 02:29:29;;;;;;;5.57;2.78;;;22.90;99.90;;;;;;5007239;28;20084;-59
2023/08/20 02:31:54;;;;;;;6.93;2.45;;;22.90;99.90;;;;;;5009757;28;20057;-59
2023/08/20 02:34:20;;;;;;;5.15;2.08;;;23.00;99.90;;;;;;5008385;28;20450;-59
2023/08/20 02:36:48;;;;;;;3.83;2.10;;;23.00;99.90;;;;;;4996318;28;20084;-59
2023/08/20 02:39:14;;;;;;;4.68;2.22;;;23.10;99.90;;;;;;5008796;28;20026;-59
2023/08/20 02:41:39;;;;;;;6.03;2.15;;;23.10;99.90;;;;;;5008880;28;20029;-59
2023/08/20 02:44:05;;;;;;;6.43;2.28;;;23.10;99.90;;;;;;5008875;28;20034;-59
2023/08/20 02:46:31;;;;;;;3.90;2.30;;;23.10;99.90;;;;;;5008716;28;20068;-58
2023/08/20 02:48:57;;;;;;;6.47;2.13;;;23.10;99.90;;;;;;5009016;28;20126;-59
2023/08/20 02:51:23;;;;;;;5.13;2.42;;;23.20;99.90;;;;;;5008882;28;20053;-59
2023/08/20 02:53:49;;;;;;;4.93;2.90;;;23.30;99.90;;;;;;5008443;28;20038;-59
2023/08/20 02:56:15;;;;;;;4.03;2.15;;;23.40;99.90;;;;;;5008714;28;20026;-59
2023/08/20 02:58:40;;;;;;;5.05;2.60;;;23.40;99.90;;;;;;5009135;28;20103;-59
2023/08/20 03:01:06;;;;;;;5.97;2.47;;;23.50;99.90;;;;;;5008627;28;20034;-59
2023/08/20 03:03:32;;;;;;;5.25;2.38;;;23.40;99.90;;;;;;5007968;28;20041;-59
2023/08/20 03:05:58;;;;;;;6.22;2.58;;;23.40;99.90;;;;;;5008082;28;20489;-59
2023/08/20 03:08:23;;;;;;;4.43;2.53;;;23.40;99.90;;;;;;5006711;28;20042;-59
2023/08/20 03:10:49;;;;;;;5.80;2.50;;;23.40;99.90;;;;;;5006590;28;20065;-59
2023/08/20 03:13:15;;;;;;;4.72;2.20;;;23.40;99.90;;;;;;5008784;28;20136;-59
2023/08/20 03:15:41;;;;;;;6.18;2.13;;;23.40;99.90;;;;;;5014260;28;20081;-59
2023/08/20 03:18:07;;;;;;;4.50;2.50;;;23.40;99.90;;;;;;5009635;28;20030;-59
2023/08/20 03:20:32;;;;;;;4.28;2.10;;;23.50;99.90;;;;;;5008819;28;20034;-58
2023/08/20 03:22:58;;;;;;;7.50;2.42;;;23.60;99.90;;;;;;5008761;28;20038;-58
2023/08/20 03:25:24;;;;;;;6.78;2.72;;;23.60;99.90;;;;;;5008450;28;20386;-59
2023/08/20 03:27:51;;;;;;;4.80;2.47;;;23.60;99.90;;;;;;5009533;28;20041;-58
2023/08/20 03:30:17;;;;;;;3.13;1.80;;;23.60;99.90;;;;;;5008030;28;20070;-58
2023/08/20 03:32:43;;;;;;;4.93;2.35;;;23.60;99.90;;;;;;5008040;28;20156;-60
2023/08/20 03:35:09;;;;;;;4.57;2.50;;;23.60;99.90;;;;;;5007737;28;20042;-60
2023/08/20 03:37:35;;;;;;;3.65;2.28;;;23.50;99.90;;;;;;5006523;28;20033;-59
2023/08/20 03:40:02;;;;;;;4.63;2.60;;;23.50;99.90;;;;;;4995194;28;20498;-60
2023/08/20 03:42:27;;;;;;;6.85;2.33;;;23.50;99.90;;;;;;5017116;28;20049;-60
2023/08/20 03:44:53;;;;;;;6.13;2.42;;;23.50;99.90;;;;;;5009676;28;20123;-60
2023/08/20 03:47:21;;;;;;;3.72;2.03;;;23.40;99.90;;;;;;5001160;28;20188;-60
2023/08/20 03:49:48;;;;;;;4.97;2.35;;;23.40;99.90;;;;;;5009761;28;20033;-59
2023/08/20 03:52:14;;;;;;;7.20;2.58;;;23.40;99.90;;;;;;5010183;28;20375;-61
2023/08/20 03:54:39;;;;;;;5.28;2.17;;;23.30;99.90;;;;;;5009233;28;20055;-60
2023/08/20 03:57:05;;;;;;;7.38;2.78;;;23.20;99.90;;;;;;5010328;28;20481;-60
2023/08/20 03:59:31;;;;;;;4.28;2.45;;;23.10;99.90;;;;;;5009713;28;20195;-60
2023/08/20 04:01:57;;;;;;;9.15;2.70;;;23.00;99.90;;;;;;5010585;28;20504;-59
2023/08/20 04:04:23;;;;;;;5.32;3.08;;;23.00;99.90;;;;;;4991054;28;20112;-60
2023/08/20 04:06:48;;;;;;;4.05;2.35;;;22.90;99.90;;;;;;5010145;28;20104;-60
2023/08/20 04:09:14;;;;;;;4.85;2.60;;;22.90;99.90;;;;;;5011326;28;20042;-60
2023/08/20 04:11:40;;;;;;;8.98;3.05;;;22.80;99.90;;;;;;5012332;28;20033;-60
2023/08/20 04:14:06;;;;;;;7.72;2.95;;;22.70;99.90;;;;;;5010779;28;20088;-59
2023/08/20 04:16:31;;;;;;;6.13;2.60;;;22.60;99.90;;;;;;5011534;28;20053;-60
2023/08/20 04:18:57;;;;;;;5.78;2.90;;;22.60;99.90;;;;;;5011410;28;20030;-60
2023/08/20 04:21:23;;;;;;;3.45;1.95;;;22.60;99.90;;;;;;5011357;28;20030;-59
2023/08/20 04:23:49;;;;;;;5.10;2.65;;;22.70;99.90;;;;;;5011097;28;20450;-60
2023/08/20 04:26:14;;;;;;;8.23;3.25;;;22.80;99.90;;;;;;4988744;28;20034;-59
2023/08/20 04:28:40;;;;;;;6.30;2.83;;;22.80;99.90;;;;;;5011150;28;20076;-59
2023/08/20 04:31:06;;;;;;;4.22;2.08;;;22.80;99.90;;;;;;5010423;28;20033;-60
2023/08/20 04:33:31;;;;;;;10.82;3.05;;;22.90;99.90;;;;;;5010190;28;20034;-59
2023/08/20 04:35:57;;;;;;;6.75;2.95;;;23.00;99.90;;;;;;5010143;28;20036;-59
2023/08/20 04:38:23;;;;;;;4.78;2.50;;;23.00;99.90;;;;;;5011656;28;20192;-60
2023/08/20 04:40:49;;;;;;;4.88;2.42;;;23.00;99.90;;;;;;5010786;28;20030;-60
2023/08/20 04:43:15;;;;;;;3.80;2.13;;;23.00;99.90;;;;;;5010427;28;20037;-59
2023/08/20 04:45:41;;;;;;;4.40;2.40;;;23.10;99.90;;;;;;5010920;28;20461;-59
2023/08/20 04:48:07;;;;;;;7.03;3.17;;;23.20;99.90;;;;;;5018344;28;20022;-59
2023/08/20 04:50:34;;;;;;;6.50;2.92;;;23.20;99.90;;;;;;5010013;28;20115;-58
2023/08/20 04:53:00;;;;;;;5.22;2.70;;;23.20;99.90;;;;;;5009864;28;20626;-58
2023/08/20 04:55:29;;;;;;;5.93;2.80;;;23.10;99.90;;;;;;5008511;28;20806;-59
2023/08/20 04:57:55;;;;;;;4.22;2.17;;;23.10;99.90;;;;;;5001555;28;20045;-60
2023/08/20 05:00:21;;;;;;;7.45;2.90;;;23.00;99.90;;;;;;5009714;28;20021;-56
2023/08/20 05:02:47;;;;;;;5.43;2.75;;;23.00;99.90;;;;;;5010336;28;20029;-56
2023/08/20 05:05:13;;;;;;;7.43;2.30;;;22.90;99.90;;;;;;5010042;28;20037;-56
2023/08/20 05:07:39;;;;;;;4.95;2.47;;;23.00;99.90;;;;;;5005836;28;20041;-56
2023/08/20 05:10:05;;;;;;;7.70;2.63;;;23.10;99.90;;;;;;5002568;28;20026;-56
2023/08/20 05:12:31;;;;;;;5.82;3.25;;;23.10;99.90;;;;;;4992935;28;20036;-56
2023/08/20 05:14:57;;;;;;;4.75;2.40;;;23.00;99.90;;;;;;4992099;28;20029;-58
2023/08/20 05:17:22;;;;;;;4.25;2.28;;;23.10;99.90;;;;;;4991252;28;20061;-56
2023/08/20 05:19:48;;;;;;;4.70;2.60;;;23.30;99.90;;;;;;4991615;28;20057;-58
2023/08/20 05:22:14;;;;;;;4.57;2.50;;;23.40;99.90;;;;;;5002677;28;20026;-58
2023/08/20 05:24:39;;;;;;;6.43;2.72;;;23.30;99.90;;;;;;4995282;28;20112;-58
2023/08/20 05:27:17;;;;;;;8.48;2.50;;;23.40;99.90;;;;;;4992545;28;20046;-61
2023/08/20 05:29:43;;;;;;;5.68;2.97;;;23.60;99.90;;;;;;4990852;28;20133;-60
2023/08/20 05:32:09;;;;;;;4.47;2.55;;;23.90;99.90;;;;;;4991663;28;20042;-60
2023/08/20 05:34:35;;;;;;;7.03;3.05;;;24.00;99.90;;;;;;4978808;28;20030;-58
2023/08/20 05:37:01;;;;;;;5.82;2.40;;;24.20;99.90;;;;;;4978148;28;20075;-58
2023/08/20 05:39:27;;;;;;;5.70;2.85;;;24.20;99.90;;;;;;4998952;28;20538;-59
2023/08/20 05:41:54;;;;;;;5.20;2.15;;;24.30;99.90;;;;;;4991893;28;20030;-59
2023/08/20 05:44:20;;;;;;;4.18;2.47;;;24.20;99.90;;;;;;4990359;28;20126;-58
2023/08/20 05:46:46;;;;;;;3.58;2.08;;;24.30;99.90;;;;;;4991835;28;20112;-58
2023/08/20 05:49:15;;;;;;;4.43;2.22;;;24.20;99.90;;;;;;4964680;28;20511;-59
2023/08/20 05:51:43;;;;;;;7.05;2.25;;;24.30;99.90;;;;;;4992440;28;20083;-59
2023/08/20 05:54:08;;;;;;;4.93;2.55;;;24.50;99.90;;;;;;4973232;28;20030;-59
2023/08/20 05:56:34;;;;;;;7.60;3.10;;;24.60;99.90;;;;;;4993788;28;20033;-54
2023/08/20 05:59:00;;;;;;;5.47;2.63;;;24.60;99.90;;;;;;4995339;28;20026;-52
2023/08/20 06:01:25;;;;;;;4.78;2.80;;;24.70;99.90;;;;;;4993421;28;20623;-53
2023/08/20 06:03:51;;;;;;;7.55;2.85;;;24.80;99.90;;;;;;4997232;28;20061;-53
2023/08/20 06:06:17;;;;;;;5.90;2.83;;;24.70;99.90;;;;;;4994999;28;20093;-54
2023/08/20 06:08:42;;;;;;;9.20;2.47;;;24.50;99.90;;;;;;5004821;28;20030;-53
2023/08/20 06:11:08;;;;;;;7.88;2.65;;;24.50;99.90;;;;;;5004183;28;20032;-55
2023/08/20 06:13:34;;;;;;;8.32;2.30;;;24.60;99.90;;;;;;5009781;28;20040;-58
2023/08/20 06:15:59;;;;;;;5.18;2.65;;;24.60;99.90;;;;;;5009506;28;20122;-58
2023/08/20 06:18:25;;;;;;;6.28;2.30;;;24.70;99.90;;;;;;5007328;28;20038;-60
2023/08/20 06:20:51;;;;;;;6.20;2.65;;;24.90;99.90;;;;;;5009209;28;20033;-61
2023/08/20 06:23:17;;;;;;;7.72;3.45;;;25.20;99.90;;;;;;5008630;28;20026;-61
2023/08/20 06:25:42;;;;;;;5.90;2.72;;;25.30;99.90;;;;;;5005456;28;20371;-60
2023/08/20 06:28:12;;;;;;;6.90;2.55;;;25.30;99.90;;;;;;5009378;28;20069;-60
2023/08/20 06:30:37;;;;;;;5.70;2.88;;;25.30;99.90;;;;;;5009406;28;20378;-60
2023/08/20 06:33:03;;;;;;;5.35;2.47;;;25.30;99.90;;;;;;5007072;28;20034;-61
2023/08/20 06:35:29;;;;;;;4.80;2.53;;;25.30;99.90;;;;;;5009859;28;20160;-60
2023/08/20 06:37:55;;;;;;;6.63;3.08;;;25.50;99.90;;;;;;5009682;28;20069;-59
2023/08/20 06:40:21;;;;;;;8.25;2.45;;;25.60;99.90;;;;;;5010590;28;20040;-60
2023/08/20 06:42:46;;;;;;;4.65;2.53;;;25.80;99.90;;;;;;5008962;28;20117;-61
2023/08/20 06:45:12;;;;;;;11.75;3.00;;;25.80;99.90;;;;;;5009815;28;20026;-60
2023/08/20 06:47:38;;;;;;;10.07;2.85;;;25.80;99.90;;;;;;5009164;28;20545;-60
2023/08/20 06:50:06;;;;;;;4.82;2.13;;;25.90;99.90;;;;;;5009108;28;20402;-60
2023/08/20 06:52:31;;;;;;;5.28;2.40;;;25.80;99.90;;;;;;5008746;28;20030;-61
2023/08/20 06:54:57;;;;;;;5.85;2.67;;;25.80;99.90;;;;;;5010237;28;20057;-60
2023/08/20 06:57:23;;;;;;;3.88;2.35;;;25.80;99.90;;;;;;5009159;28;20037;-60
2023/08/20 06:59:48;;;;;;;5.25;2.85;;;25.80;99.90;;;;;;5009901;28;20029;-62
2023/08/20 07:02:15;;;;;;;5.70;2.70;;;25.70;99.90;;;;;;5006659;28;20033;-57
2023/08/20 07:04:40;;;;;;;4.85;2.50;;;25.70;99.90;;;;;;5009403;28;20030;-59
2023/08/20 07:07:06;;;;;;;4.80;2.33;;;25.60;99.90;;;;;;5009584;28;20432;-59
2023/08/20 07:09:32;;;;;;;4.15;2.20;;;25.60;99.90;;;;;;5010215;28;20030;-57
2023/08/20 07:11:58;;;;;;;5.47;3.03;;;25.60;99.90;;;;;;5009264;28;20061;-58
2023/08/20 07:14:24;;;;;;;6.25;3.08;;;25.80;99.90;;;;;;5009981;28;20406;-61
2023/08/20 07:16:49;;;;;;;4.32;2.58;;;25.90;99.90;;;;;;5012938;28;20079;-61
2023/08/20 07:19:15;;;;;;;4.82;2.30;;;25.90;99.90;;;;;;5013621;28;20417;-54
2023/08/20 07:21:41;;;;;;;5.07;2.70;;;25.90;99.90;;;;;;5013067;28;20069;-58
2023/08/20 07:24:07;;;;;;;7.20;2.80;;;25.90;99.90;;;;;;5012862;28;20511;-57
2023/08/20 07:26:33;;;;;;;5.15;2.30;;;25.90;99.90;;;;;;5013161;28;20045;-58
2023/08/20 07:29:01;;;;;;;5.88;3.28;;;25.80;99.90;;;;;;5013434;28;20036;-57
2023/08/20 07:31:30;;;;;;;6.40;2.28;;;25.70;99.90;;;;;;5012155;28;20096;-56
2023/08/20 07:33:57;;;;;;;5.35;3.22;;;25.80;99.90;;;;;;5012157;28;20124;-57
2023/08/20 07:36:25;;;;;;;4.25;2.65;;;25.90;99.90;;;;;;5012267;28;20520;-56
2023/08/20 07:38:52;;;;;;;5.82;2.72;;;26.00;99.90;;;;;;5013140;28;20044;-54
2023/08/20 07:41:19;;;;;;;6.63;2.75;;;26.00;99.90;;;;;;5010691;28;20036;-57
2023/08/20 07:43:46;;;;;;;8.88;3.55;;;26.10;99.90;;;;;;5011461;28;20036;-57
2023/08/20 07:46:13;;;;;;;6.28;3.05;;;26.30;99.90;;;;;;4994563;28;20041;-52
2023/08/20 07:48:39;;;;;;;5.72;2.88;;;26.30;99.90;;;;;;5013343;28;20040;-54
2023/08/20 07:51:06;;;;;;;6.25;2.60;;;26.40;99.90;;;;;;5008938;28;20033;-54
2023/08/20 07:53:32;;;;;;;4.50;2.33;;;26.40;99.90;;;;;;5003544;28;20068;-55
2023/08/20 07:56:00;;;;;;;11.02;3.70;;;26.50;99.90;;;;;;5012787;28;20101;-54
2023/08/20 07:58:26;;;;;;;5.25;3.03;;;26.50;99.90;;;;;;5012120;28;20470;-50
2023/08/20 08:00:51;;;;;;;6.63;2.92;;;26.30;99.90;;;;;;5011889;28;20037;-53
2023/08/20 08:03:17;;;;;;;5.40;3.20;;;26.30;99.90;;;;;;5002151;28;20029;-56
2023/08/20 08:05:50;;;;;;;6.68;2.35;;;26.40;99.90;;;;;;5009873;28;20033;-53
2023/08/20 08:08:17;;;;;;;4.47;2.45;;;26.50;99.90;;;;;;5006140;28;20018;-54
2023/08/20 08:10:46;;;;;;;5.15;2.83;;;26.60;99.90;;;;;;4988397;28;20022;-52
2023/08/20 08:13:14;;;;;;;5.55;2.75;;;26.60;99.90;;;;;;4994730;28;20034;-55
2023/08/20 08:15:40;;;;;;;5.47;2.55;;;26.60;99.90;;;;;;4997131;28;20030;-53
2023/08/20 08:18:07;;;;;;;5.38;3.20;;;26.70;99.90;;;;;;5009054;28;20101;-54
2023/08/20 08:20:34;;;;;;;8.20;3.05;;;26.60;99.90;;;;;;5011511;28;20069;-54
2023/08/20 08:23:00;;;;;;;5.03;2.65;;;26.80;99.90;;;;;;5009851;28;20030;-53
2023/08/20 08:25:27;;;;;;;5.68;2.72;;;26.90;99.90;;;;;;5015369;28;20038;-50
2023/08/20 08:27:53;;;;;;;4.70;2.53;;;27.00;99.90;;;;;;5007875;28;20026;-54
2023/08/20 08:30:19;;;;;;;4.47;2.70;;;27.00;99.90;;;;;;5010669;28;20486;-52
2023/08/20 08:32:45;;;;;;;4.97;3.28;;;27.10;99.90;;;;;;5010053;28;20169;-52
2023/08/20 08:35:10;;;;;;;6.65;3.20;;;27.00;99.90;;;;;;5008761;28;20034;-51
2023/08/20 08:37:37;;;;;;;4.70;2.58;;;27.10;99.90;;;;;;5011385;28;20137;-53
2023/08/20 08:40:06;;;;;;;4.38;2.80;;;27.20;99.90;;;;;;5000347;28;20118;-51
2023/08/20 08:42:35;;;;;;;4.75;2.58;;;27.30;99.90;;;;;;5010706;28;20045;-52
2023/08/20 08:45:02;;;;;;;5.88;2.85;;;27.30;99.90;;;;;;5003449;28;20124;-53
2023/08/20 08:47:29;;;;;;;5.30;2.97;;;27.40;99.90;;;;;;5009343;28;20084;-51
2023/08/20 08:49:56;;;;;;;5.13;2.70;;;27.40;99.90;;;;;;5013250;28;20054;-53
2023/08/20 08:52:26;;;;;;;20.55;10.05;;;27.50;99.90;;;;;;5008412;28;20406;-53
2023/08/20 08:54:52;;;;;;;5.17;3.07;;;27.40;99.90;;;;;;5010743;28;20045;-50
2023/08/20 08:57:18;;;;;;;5.85;2.88;;;27.60;99.90;;;;;;4999458;28;20906;-51
2023/08/20 08:59:44;;;;;;;2.63;1.70;;;27.70;99.90;;;;;;5012075;28;20069;-53
2023/08/20 09:02:12;;;;;;;5.72;2.88;;;27.80;99.90;;;;;;5010702;28;20029;-53
2023/08/20 09:04:42;;;;;;;7.90;2.83;;;27.70;99.90;;;;;;5010422;28;20389;-53
2023/08/20 09:07:13;;;;;;;4.35;2.60;;;27.80;99.90;;;;;;4998586;28;20032;-53
2023/08/20 09:09:43;;;;;;;5.80;2.58;;;27.90;99.90;;;;;;5000839;28;20033;-54
2023/08/20 09:12:18;;;;;;;4.32;2.05;;;28.00;99.90;;;;;;5001645;28;20038;-51
2023/08/20 09:14:48;;;;;;;4.30;2.35;;;28.10;99.90;;;;;;4999026;28;20034;-52
2023/08/20 09:17:14;;;;;;;3.88;2.20;;;28.30;99.90;;;;;;5003394;28;20247;-51
2023/08/20 09:19:46;;;;;;;4.53;2.53;;;28.40;99.90;;;;;;4997871;28;20505;-55
2023/08/20 09:22:13;;;;;;;5.60;2.80;;;28.20;99.90;;;;;;5007766;28;20065;-50
2023/08/20 09:24:46;;;;;;;6.95;2.70;;;28.30;99.90;;;;;;4998084;28;20037;-51
2023/08/20 09:27:13;;;;;;;6.32;2.53;;;28.40;99.90;;;;;;5010831;28;20513;-51
2023/08/20 09:29:48;;;;;;;3.90;2.20;;;28.30;99.90;;;;;;5011734;28;20108;-49
2023/08/20 09:32:23;;;;;;;4.47;2.38;;;28.40;99.90;;;;;;5008737;28;20038;-52
2023/08/20 09:34:50;;;;;;;4.65;2.35;;;28.40;99.90;;;;;;5010773;28;20034;-48
2023/08/20 09:37:19;;;;;;;5.30;2.45;;;28.40;99.90;;;;;;5009647;28;20482;-50
2023/08/20 09:39:45;;;;;;;5.65;2.20;;;28.60;99.90;;;;;;5011411;28;20041;-46
2023/08/20 09:42:12;;;;;;;8.07;2.50;;;28.80;99.90;;;;;;5002090;28;20058;-50
2023/08/20 09:44:41;;;;;;;5.15;2.90;;;28.90;99.90;;;;;;5010280;28;20026;-48
2023/08/20 09:47:08;;;;;;;4.95;2.78;;;29.00;99.90;;;;;;4995526;28;20080;-52
2023/08/20 09:49:46;;;;;;;4.57;2.15;;;28.90;99.90;;;;;;5016682;28;20435;-51
2023/08/20 09:52:19;;;;;;;5.25;2.65;;;29.00;99.90;;;;;;5010500;28;20037;-51
2023/08/20 09:55:09;;;;;;;4.22;2.25;;;29.20;99.90;;;;;;4997584;28;20041;-51
2023/08/20 09:57:40;;;;;;;3.45;2.22;;;29.40;99.90;;;;;;5010965;28;20401;-52
2023/08/20 10:00:09;;;;;;;7.28;2.88;;;29.40;99.90;;;;;;5011107;28;20029;-52
2023/08/20 10:02:36;;;;;;;6.40;2.33;;;29.40;99.90;;;;;;4995351;28;20053;-53
2023/08/20 10:05:07;;;;;;;5.82;2.28;;;29.40;99.90;;;;;;4995414;28;20209;-53
2023/08/20 10:07:35;;;;;;;6.15;2.40;;;29.40;99.90;;;;;;5010590;28;20033;-57
2023/08/20 10:10:04;;;;;;;3.40;2.03;;;29.70;99.90;;;;;;5011987;28;20425;-55
2023/08/20 10:12:31;;;;;;;3.90;2.30;;;29.80;99.90;;;;;;5006868;28;20099;-55
2023/08/20 10:15:00;;;;;;;5.70;2.63;;;30.00;99.90;;;;;;5008364;28;20069;-73
2023/08/20 10:17:28;;;;;;;3.22;2.15;;;30.20;99.90;;;;;;5016911;28;20125;-77
2023/08/20 10:19:57;;;;;;;3.58;1.88;;;30.40;99.90;;;;;;5013328;28;20486;-74
2023/08/20 10:22:31;;;;;;;3.88;1.95;;;30.60;99.90;;;;;;5015152;28;20034;-76
2023/08/20 10:24:59;;;;;;;4.72;1.88;;;30.80;99.90;;;;;;5014654;28;20084;-72
2023/08/20 10:27:38;;;;;;;4.97;2.40;;;30.90;99.90;;;;;;5013150;28;20033;-74
2023/08/20 10:30:26;;;;;;;3.10;1.90;;;31.00;99.90;;;;;;5010068;28;20088;-74
2023/08/20 10:32:54;;;;;;;4.38;2.00;;;30.90;99.90;;;;;;4997512;28;20029;-73
2023/08/20 10:35:29;;;;;;;3.17;2.08;;;31.10;99.90;;;;;;4978188;28;20070;-75
2023/08/20 10:38:13;;;;;;;4.35;1.90;;;31.20;99.90;;;;;;5002369;28;20182;-74
2023/08/20 10:40:58;;;;;;;6.50;2.13;;;31.20;99.90;;;;;;5006202;28;20057;-74
2023/08/20 10:43:32;;;;;;;4.20;2.38;;;31.30;99.90;;;;;;5002213;28;20042;-74
2023/08/20 10:46:13;;;;;;;3.97;1.88;;;31.40;99.90;;;;;;5009490;28;20041;-77
2023/08/20 10:48:40;;;;;;;5.15;2.03;;;31.60;99.90;;;;;;5008510;28;20030;-75
2023/08/20 10:51:27;;;;;;;3.05;1.90;;;31.50;99.30;;;;;;4994870;28;20030;-72
2023/08/20 10:54:10;;;;;;;5.18;1.77;;;31.80;99.40;;;;;;4991544;28;20042;-72
2023/08/20 10:56:58;;;;;;;2.95;1.45;;;32.10;98.20;;;;;;5004461;28;20050;-71
2023/08/20 10:59:29;;;;;;;3.00;1.42;;;32.20;98.00;;;;;;4977216;28;20462;-69
2023/08/20 11:01:58;;;;;;;4.13;1.92;;;32.30;98.30;;;;;;4992982;28;20034;-72
2023/08/20 11:04:34;;;;;;;7.72;1.83;;;32.70;98.10;;;;;;4995481;28;20489;-69
2023/08/20 11:07:00;;;;;;;2.72;1.23;;;33.00;95.90;;;;;;5002628;28;20084;-68
2023/08/20 11:09:29;;;;;;;2.78;1.88;;;32.70;95.30;;;;;;4992895;28;20037;-69
2023/08/20 11:11:55;;;;;;;8.20;1.88;;;32.90;95.10;;;;;;4993579;28;20045;-68
2023/08/20 11:14:22;;;;;;;3.53;1.35;;;33.10;94.50;;;;;;4993435;28;20084;-68
2023/08/20 11:16:49;;;;;;;4.38;1.42;;;33.20;94.00;;;;;;4992415;28;20022;-69
2023/08/20 11:19:20;;;;;;;3.25;1.42;;;32.90;93.90;;;;;;4990782;28;20065;-68
2023/08/20 11:21:47;;;;;;;3.28;1.40;;;33.30;94.10;;;;;;4994443;28;20022;-71
2023/08/20 11:24:13;;;;;;;3.08;1.70;;;33.30;93.10;;;;;;4991250;28;20036;-67
2023/08/20 11:26:41;;;;;;;2.25;1.13;;;33.40;93.20;;;;;;4994492;28;20034;-67
2023/08/20 11:29:08;;;;;;;2.25;1.25;;;33.20;93.20;;;;;;4993790;28;20608;-68
2023/08/20 11:31:36;;;;;;;3.88;1.92;;;33.70;93.50;;;;;;4994165;28;20049;-66
2023/08/20 11:34:03;;;;;;;3.65;1.65;;;33.50;92.10;;;;;;4979429;28;20085;-68
2023/08/20 11:36:29;;;;;;;3.28;1.40;;;33.80;92.30;;;;;;4994016;28;20037;-67
2023/08/20 11:38:55;;;;;;;2.38;1.17;;;33.90;92.20;;;;;;4993648;28;20045;-66
2023/08/20 11:41:23;;;;;;;2.63;1.58;;;33.50;91.80;;;;;;5000913;28;20026;-67
2023/08/20 11:43:50;;;;;;;2.78;1.38;;;33.70;92.60;;;;;;4993129;28;20061;-67
2023/08/20 11:46:19;;;;;;;4.07;1.88;;;33.90;92.40;;;;;;4984435;28;20019;-68
2023/08/20 11:49:00;;;;;;;2.73;1.40;;;34.20;92.20;;;;;;4993405;28;20084;-67
2023/08/20 11:51:27;;;;;;;2.28;1.00;;;34.00;91.10;;;;;;4986907;28;20096;-67
2023/08/20 11:53:52;;;;;;;2.65;1.33;;;34.10;90.60;;;;;;4992947;28;20042;-67
2023/08/20 11:56:18;;;;;;;2.10;0.82;;;34.60;90.60;;;;;;5000643;28;20089;-67
2023/08/20 11:58:51;;;;;;;3.78;1.10;;;35.10;89.20;;;;;;5005830;28;20049;-66
2023/08/20 12:01:20;;;;;;;1.88;1.05;;;35.70;87.40;;;;;;4990190;28;20026;-67
2023/08/20 12:03:46;;;;;;;3.35;1.50;;;35.40;86.80;;;;;;4984486;28;20110;-68
2023/08/20 12:06:20;;;;;;;1.75;1.13;;;35.60;83.10;;;;;;4991760;28;20239;-67
2023/08/20 12:08:46;;;;;;;1.98;1.25;;;35.30;83.40;;;;;;4990244;28;20114;-67
2023/08/20 12:11:13;;;;;;;2.90;1.10;;;35.10;84.80;;;;;;4993086;28;20117;-67
2023/08/20 12:13:39;;;;;;;3.67;1.45;;;35.10;84.70;;;;;;4978352;28;20042;-67
2023/08/20 12:16:04;;;;;;;3.13;0.88;;;35.10;84.90;;;;;;5001356;28;20034;-67
2023/08/20 12:18:31;;;;;;;2.15;0.93;;;35.10;82.30;;;;;;4993481;28;20124;-66
2023/08/20 12:20:57;;;;;;;2.00;1.25;;;35.00;82.90;;;;;;4988734;28;20065;-68
2023/08/20 12:23:23;;;;;;;3.13;1.10;;;34.50;83.10;;;;;;4959276;28;20038;-67
2023/08/20 12:25:52;;;;;;;3.33;1.23;;;34.90;84.20;;;;;;4992840;28;20030;-67
2023/08/20 12:28:18;;;;;;;6.55;1.38;;;35.00;83.60;;;;;;5000330;28;20041;-67
2023/08/20 12:30:44;;;;;;;2.65;1.10;;;35.90;83.10;;;;;;5004722;28;20073;-67
2023/08/20 12:33:10;;;;;;;2.67;1.70;;;35.30;83.00;;;;;;4991970;28;20053;-67
2023/08/20 12:35:37;;;;;;;3.30;1.50;;;35.80;84.10;;;;;;4992471;28;20030;-68
2023/08/20 12:38:03;;;;;;;1.90;1.30;;;35.80;86.30;;;;;;4993324;28;20034;-66
2023/08/20 12:40:30;;;;;;;2.85;1.30;;;36.50;85.60;;;;;;5004747;28;20521;-66
2023/08/20 12:42:56;;;;;;;5.20;1.70;;;37.10;84.40;;;;;;4999005;28;20030;-67
2023/08/20 12:45:22;;;;;;;2.28;1.33;;;36.90;85.80;;;;;;5004520;28;20045;-66
2023/08/20 12:47:48;;;;;;;3.40;1.50;;;36.60;86.60;;;;;;4992726;28;20057;-66
2023/08/20 12:50:14;;;;;;;3.03;1.60;;;36.80;85.90;;;;;;4992427;28;20108;-66